sensor_id;sensor_type;location;lat;lon;timestamp;P1;durP1;ratioP1;P2;durP2;ratioP2
830;SDS011;397;50.564;7.272;2024-01-10T00:01:47;28.20;;;18.47;;
830;SDS011;397;50.564;7.272;2024-01-10T00:04:14;26.90;;;17.07;;
830;SDS011;397;50.564;7.272;2024-01-10T00:06:43;24.83;;;16.03;;
830;SDS011;397;50.564;7.272;2024-01-10T00:09:11;26.30;;;16.90;;
830;SDS011;397;50.564;7.272;2024-01-10T00:11:38;28.20;;;15.20;;
830;SDS011;397;50.564;7.272;2024-01-10T00:14:05;16.10;;;10.37;;
830;SDS011;397;50.564;7.272;2024-01-10T00:16:33;21.63;;;13.33;;
830;SDS011;397;50.564;7.272;2024-01-10T00:19:00;15.20;;;10.37;;
830;SDS011;397;50.564;7.272;2024-01-10T00:21:27;15.37;;;7.80;;
830;SDS011;397;50.564;7.272;2024-01-10T00:23:55;18.90;;;10.53;;
830;SDS011;397;50.564;7.272;2024-01-10T00:26:22;19.50;;;10.77;;
830;SDS011;397;50.564;7.272;2024-01-10T00:28:50;9.40;;;4.97;;
830;SDS011;397;50.564;7.272;2024-01-10T00:31:17;7.27;;;4.23;;
830;SDS011;397;50.564;7.272;2024-01-10T00:33:45;8.13;;;5.63;;
830;SDS011;397;50.564;7.272;2024-01-10T00:36:12;13.60;;;7.07;;
830;SDS011;397;50.564;7.272;2024-01-10T00:38:39;7.80;;;5.37;;
830;SDS011;397;50.564;7.272;2024-01-10T00:41:06;8.07;;;5.17;;
830;SDS011;397;50.564;7.272;2024-01-10T00:43:34;9.03;;;5.83;;
830;SDS011;397;50.564;7.272;2024-01-10T00:46:01;10.00;;;6.20;;
830;SDS011;397;50.564;7.272;2024-01-10T00:48:29;14.30;;;7.87;;
830;SDS011;397;50.564;7.272;2024-01-10T00:50:56;12.53;;;8.23;;
830;SDS011;397;50.564;7.272;2024-01-10T00:53:23;12.00;;;7.50;;
830;SDS011;397;50.564;7.272;2024-01-10T00:55:51;14.77;;;9.63;;
830;SDS011;397;50.564;7.272;2024-01-10T00:58:18;12.10;;;7.77;;
830;SDS011;397;50.564;7.272;2024-01-10T01:00:45;17.83;;;10.30;;
830;SDS011;397;50.564;7.272;2024-01-10T01:03:13;22.73;;;15.63;;
830;SDS011;397;50.564;7.272;2024-01-10T01:05:40;20.83;;;12.33;;
830;SDS011;397;50.564;7.272;2024-01-10T01:08:07;20.87;;;13.33;;
830;SDS011;397;50.564;7.272;2024-01-10T01:10:35;18.70;;;12.83;;
830;SDS011;397;50.564;7.272;2024-01-10T01:13:02;22.60;;;15.20;;
830;SDS011;397;50.564;7.272;2024-01-10T01:15:29;17.30;;;12.30;;
830;SDS011;397;50.564;7.272;2024-01-10T01:17:56;18.20;;;11.93;;
830;SDS011;397;50.564;7.272;2024-01-10T01:20:24;18.60;;;12.20;;
830;SDS011;397;50.564;7.272;2024-01-10T01:22:51;22.77;;;11.60;;
830;SDS011;397;50.564;7.272;2024-01-10T01:25:19;17.57;;;12.60;;
830;SDS011;397;50.564;7.272;2024-01-10T01:27:46;20.40;;;15.13;;
830;SDS011;397;50.564;7.272;2024-01-10T01:30:13;21.37;;;13.83;;
830;SDS011;397;50.564;7.272;2024-01-10T01:32:41;19.40;;;13.20;;
830;SDS011;397;50.564;7.272;2024-01-10T01:35:08;28.97;;;14.50;;
830;SDS011;397;50.564;7.272;2024-01-10T01:37:35;15.80;;;11.80;;
830;SDS011;397;50.564;7.272;2024-01-10T01:40:02;24.27;;;12.17;;
830;SDS011;397;50.564;7.272;2024-01-10T01:42:30;22.43;;;11.90;;
830;SDS011;397;50.564;7.272;2024-01-10T01:44:58;25.13;;;15.17;;
830;SDS011;397;50.564;7.272;2024-01-10T01:47:25;17.00;;;11.23;;
830;SDS011;397;50.564;7.272;2024-01-10T01:49:53;15.17;;;9.80;;
830;SDS011;397;50.564;7.272;2024-01-10T01:52:20;18.80;;;13.67;;
830;SDS011;397;50.564;7.272;2024-01-10T01:54:48;22.00;;;11.60;;
830;SDS011;397;50.564;7.272;2024-01-10T01:57:15;20.67;;;10.63;;
830;SDS011;397;50.564;7.272;2024-01-10T01:59:42;13.90;;;10.10;;
830;SDS011;397;50.564;7.272;2024-01-10T02:02:09;18.07;;;10.47;;
830;SDS011;397;50.564;7.272;2024-01-10T02:04:38;19.03;;;12.10;;
830;SDS011;397;50.564;7.272;2024-01-10T02:07:06;21.00;;;10.40;;
830;SDS011;397;50.564;7.272;2024-01-10T02:09:33;19.87;;;12.20;;
830;SDS011;397;50.564;7.272;2024-01-10T02:12:00;19.20;;;11.63;;
830;SDS011;397;50.564;7.272;2024-01-10T02:14:27;18.77;;;11.30;;
830;SDS011;397;50.564;7.272;2024-01-10T02:16:55;15.03;;;10.37;;
830;SDS011;397;50.564;7.272;2024-01-10T02:19:23;10.87;;;7.57;;
830;SDS011;397;50.564;7.272;2024-01-10T02:21:52;17.17;;;8.90;;
830;SDS011;397;50.564;7.272;2024-01-10T02:24:19;14.17;;;8.13;;
830;SDS011;397;50.564;7.272;2024-01-10T02:26:47;12.83;;;8.37;;
830;SDS011;397;50.564;7.272;2024-01-10T02:29:16;15.83;;;10.13;;
830;SDS011;397;50.564;7.272;2024-01-10T02:31:43;25.87;;;10.83;;
830;SDS011;397;50.564;7.272;2024-01-10T02:34:11;15.53;;;9.70;;
830;SDS011;397;50.564;7.272;2024-01-10T02:36:38;19.27;;;11.10;;
830;SDS011;397;50.564;7.272;2024-01-10T02:39:06;17.43;;;10.47;;
830;SDS011;397;50.564;7.272;2024-01-10T02:41:33;17.27;;;11.93;;
830;SDS011;397;50.564;7.272;2024-01-10T02:44:00;19.03;;;13.53;;
830;SDS011;397;50.564;7.272;2024-01-10T02:46:28;17.50;;;11.70;;
830;SDS011;397;50.564;7.272;2024-01-10T02:48:55;18.73;;;10.97;;
830;SDS011;397;50.564;7.272;2024-01-10T02:51:23;13.70;;;11.13;;
830;SDS011;397;50.564;7.272;2024-01-10T02:53:51;17.93;;;10.93;;
830;SDS011;397;50.564;7.272;2024-01-10T02:56:18;17.70;;;11.50;;
830;SDS011;397;50.564;7.272;2024-01-10T02:58:45;16.33;;;10.90;;
830;SDS011;397;50.564;7.272;2024-01-10T03:01:13;23.00;;;11.87;;
830;SDS011;397;50.564;7.272;2024-01-10T03:03:41;20.17;;;11.10;;
830;SDS011;397;50.564;7.272;2024-01-10T03:06:09;17.37;;;11.37;;
830;SDS011;397;50.564;7.272;2024-01-10T03:08:36;19.67;;;10.93;;
830;SDS011;397;50.564;7.272;2024-01-10T03:11:03;20.83;;;13.23;;
830;SDS011;397;50.564;7.272;2024-01-10T03:13:30;22.47;;;11.07;;
830;SDS011;397;50.564;7.272;2024-01-10T03:15:58;19.57;;;12.20;;
830;SDS011;397;50.564;7.272;2024-01-10T03:18:26;19.50;;;11.87;;
830;SDS011;397;50.564;7.272;2024-01-10T03:20:53;22.10;;;12.67;;
830;SDS011;397;50.564;7.272;2024-01-10T03:23:20;43.50;;;14.33;;
830;SDS011;397;50.564;7.272;2024-01-10T03:25:48;17.70;;;11.97;;
830;SDS011;397;50.564;7.272;2024-01-10T03:28:15;18.80;;;12.27;;
830;SDS011;397;50.564;7.272;2024-01-10T03:30:44;18.90;;;11.07;;
830;SDS011;397;50.564;7.272;2024-01-10T03:33:12;15.80;;;10.93;;
830;SDS011;397;50.564;7.272;2024-01-10T03:35:39;17.90;;;9.83;;
830;SDS011;397;50.564;7.272;2024-01-10T03:38:06;16.40;;;10.93;;
830;SDS011;397;50.564;7.272;2024-01-10T03:40:34;18.23;;;10.53;;
830;SDS011;397;50.564;7.272;2024-01-10T03:43:01;12.77;;;8.60;;
830;SDS011;397;50.564;7.272;2024-01-10T03:45:28;15.67;;;7.83;;
830;SDS011;397;50.564;7.272;2024-01-10T03:47:56;14.43;;;7.00;;
830;SDS011;397;50.564;7.272;2024-01-10T03:50:23;13.83;;;6.47;;
830;SDS011;397;50.564;7.272;2024-01-10T03:52:50;14.67;;;8.90;;
830;SDS011;397;50.564;7.272;2024-01-10T03:55:17;10.00;;;7.43;;
830;SDS011;397;50.564;7.272;2024-01-10T03:57:45;14.40;;;8.07;;
830;SDS011;397;50.564;7.272;2024-01-10T04:00:12;13.43;;;9.33;;
830;SDS011;397;50.564;7.272;2024-01-10T04:02:39;14.33;;;8.37;;
830;SDS011;397;50.564;7.272;2024-01-10T04:05:11;19.30;;;10.67;;
830;SDS011;397;50.564;7.272;2024-01-10T04:07:40;16.30;;;8.00;;
830;SDS011;397;50.564;7.272;2024-01-10T04:10:14;13.67;;;9.63;;
830;SDS011;397;50.564;7.272;2024-01-10T04:12:39;15.37;;;9.10;;
830;SDS011;397;50.564;7.272;2024-01-10T04:15:07;17.30;;;9.70;;
830;SDS011;397;50.564;7.272;2024-01-10T04:17:34;14.60;;;9.00;;
830;SDS011;397;50.564;7.272;2024-01-10T04:20:02;17.53;;;10.43;;
830;SDS011;397;50.564;7.272;2024-01-10T04:22:29;14.73;;;9.43;;
830;SDS011;397;50.564;7.272;2024-01-10T04:24:57;16.70;;;11.60;;
830;SDS011;397;50.564;7.272;2024-01-10T04:27:24;19.50;;;12.80;;
830;SDS011;397;50.564;7.272;2024-01-10T04:29:52;18.67;;;10.60;;
830;SDS011;397;50.564;7.272;2024-01-10T04:32:19;16.40;;;12.97;;
830;SDS011;397;50.564;7.272;2024-01-10T04:34:47;16.93;;;11.03;;
830;SDS011;397;50.564;7.272;2024-01-10T04:37:14;17.20;;;10.80;;
830;SDS011;397;50.564;7.272;2024-01-10T04:39:41;16.50;;;10.73;;
830;SDS011;397;50.564;7.272;2024-01-10T04:42:11;18.07;;;11.80;;
830;SDS011;397;50.564;7.272;2024-01-10T04:44:39;18.03;;;11.80;;
830;SDS011;397;50.564;7.272;2024-01-10T04:47:06;24.77;;;11.33;;
830;SDS011;397;50.564;7.272;2024-01-10T04:49:34;18.73;;;12.43;;
830;SDS011;397;50.564;7.272;2024-01-10T04:52:01;17.93;;;11.63;;
830;SDS011;397;50.564;7.272;2024-01-10T04:54:29;15.17;;;11.13;;
830;SDS011;397;50.564;7.272;2024-01-10T04:56:56;23.03;;;13.40;;
830;SDS011;397;50.564;7.272;2024-01-10T04:59:23;17.30;;;10.77;;
830;SDS011;397;50.564;7.272;2024-01-10T05:01:51;17.00;;;12.43;;
830;SDS011;397;50.564;7.272;2024-01-10T05:04:18;15.43;;;10.50;;
830;SDS011;397;50.564;7.272;2024-01-10T05:06:45;14.00;;;9.83;;
830;SDS011;397;50.564;7.272;2024-01-10T05:09:13;18.30;;;11.20;;
830;SDS011;397;50.564;7.272;2024-01-10T05:11:40;16.83;;;11.80;;
830;SDS011;397;50.564;7.272;2024-01-10T05:14:07;21.23;;;12.10;;
830;SDS011;397;50.564;7.272;2024-01-10T05:16:34;15.33;;;10.80;;
830;SDS011;397;50.564;7.272;2024-01-10T05:19:02;23.33;;;11.80;;
830;SDS011;397;50.564;7.272;2024-01-10T05:21:32;18.43;;;11.63;;
830;SDS011;397;50.564;7.272;2024-01-10T05:24:00;12.50;;;10.27;;
830;SDS011;397;50.564;7.272;2024-01-10T05:26:27;18.73;;;11.97;;
830;SDS011;397;50.564;7.272;2024-01-10T05:28:54;19.00;;;11.83;;
830;SDS011;397;50.564;7.272;2024-01-10T05:31:21;15.30;;;10.20;;
830;SDS011;397;50.564;7.272;2024-01-10T05:33:48;17.00;;;11.97;;
830;SDS011;397;50.564;7.272;2024-01-10T05:36:16;18.87;;;10.13;;
830;SDS011;397;50.564;7.272;2024-01-10T05:38:43;18.60;;;12.00;;
830;SDS011;397;50.564;7.272;2024-01-10T05:41:10;18.17;;;11.53;;
830;SDS011;397;50.564;7.272;2024-01-10T05:43:37;13.10;;;10.17;;
830;SDS011;397;50.564;7.272;2024-01-10T05:46:05;22.20;;;11.47;;
830;SDS011;397;50.564;7.272;2024-01-10T05:48:32;17.03;;;11.90;;
830;SDS011;397;50.564;7.272;2024-01-10T05:50:59;17.10;;;11.73;;
830;SDS011;397;50.564;7.272;2024-01-10T05:53:28;19.70;;;14.20;;
830;SDS011;397;50.564;7.272;2024-01-10T05:55:55;19.67;;;11.33;;
830;SDS011;397;50.564;7.272;2024-01-10T05:58:22;20.93;;;13.17;;
830;SDS011;397;50.564;7.272;2024-01-10T06:00:49;17.43;;;12.10;;
830;SDS011;397;50.564;7.272;2024-01-10T06:03:17;16.00;;;11.00;;
830;SDS011;397;50.564;7.272;2024-01-10T06:05:44;15.17;;;11.00;;
830;SDS011;397;50.564;7.272;2024-01-10T06:08:11;20.63;;;11.40;;
830;SDS011;397;50.564;7.272;2024-01-10T06:10:40;21.70;;;12.07;;
830;SDS011;397;50.564;7.272;2024-01-10T06:13:07;15.00;;;11.13;;
830;SDS011;397;50.564;7.272;2024-01-10T06:15:34;16.30;;;11.20;;
830;SDS011;397;50.564;7.272;2024-01-10T06:18:02;14.50;;;11.17;;
830;SDS011;397;50.564;7.272;2024-01-10T06:20:29;16.93;;;11.30;;
830;SDS011;397;50.564;7.272;2024-01-10T06:22:58;18.23;;;11.20;;
830;SDS011;397;50.564;7.272;2024-01-10T06:25:25;21.43;;;10.90;;
830;SDS011;397;50.564;7.272;2024-01-10T06:27:53;18.77;;;11.73;;
830;SDS011;397;50.564;7.272;2024-01-10T06:30:21;17.63;;;10.90;;
830;SDS011;397;50.564;7.272;2024-01-10T06:32:48;22.60;;;12.83;;
830;SDS011;397;50.564;7.272;2024-01-10T06:35:15;23.80;;;12.73;;
830;SDS011;397;50.564;7.272;2024-01-10T06:37:42;24.60;;;13.80;;
830;SDS011;397;50.564;7.272;2024-01-10T06:40:10;24.73;;;15.30;;
830;SDS011;397;50.564;7.272;2024-01-10T06:42:38;22.00;;;12.90;;
830;SDS011;397;50.564;7.272;2024-01-10T06:45:06;23.00;;;13.07;;
830;SDS011;397;50.564;7.272;2024-01-10T06:47:34;19.07;;;12.27;;
830;SDS011;397;50.564;7.272;2024-01-10T06:50:02;18.97;;;12.60;;
830;SDS011;397;50.564;7.272;2024-01-10T06:52:31;20.07;;;12.40;;
830;SDS011;397;50.564;7.272;2024-01-10T06:54:58;16.20;;;12.00;;
830;SDS011;397;50.564;7.272;2024-01-10T06:57:25;21.00;;;12.10;;
830;SDS011;397;50.564;7.272;2024-01-10T06:59:53;21.43;;;14.30;;
830;SDS011;397;50.564;7.272;2024-01-10T07:02:20;18.40;;;14.37;;
830;SDS011;397;50.564;7.272;2024-01-10T07:04:47;19.73;;;12.23;;
830;SDS011;397;50.564;7.272;2024-01-10T07:07:15;17.90;;;12.77;;
830;SDS011;397;50.564;7.272;2024-01-10T07:09:43;18.20;;;12.77;;
830;SDS011;397;50.564;7.272;2024-01-10T07:12:10;23.17;;;13.80;;
830;SDS011;397;50.564;7.272;2024-01-10T07:14:38;22.10;;;14.23;;
830;SDS011;397;50.564;7.272;2024-01-10T07:17:05;20.70;;;15.50;;
830;SDS011;397;50.564;7.272;2024-01-10T07:19:32;24.60;;;12.80;;
830;SDS011;397;50.564;7.272;2024-01-10T07:21:59;20.00;;;13.37;;
830;SDS011;397;50.564;7.272;2024-01-10T07:24:27;16.50;;;11.23;;
830;SDS011;397;50.564;7.272;2024-01-10T07:26:54;17.83;;;12.07;;
830;SDS011;397;50.564;7.272;2024-01-10T07:29:23;24.00;;;13.47;;
830;SDS011;397;50.564;7.272;2024-01-10T07:31:50;22.83;;;14.83;;
830;SDS011;397;50.564;7.272;2024-01-10T07:34:18;23.17;;;15.30;;
830;SDS011;397;50.564;7.272;2024-01-10T07:36:47;19.53;;;14.53;;
830;SDS011;397;50.564;7.272;2024-01-10T07:39:14;18.03;;;13.03;;
830;SDS011;397;50.564;7.272;2024-01-10T07:41:44;21.00;;;12.53;;
830;SDS011;397;50.564;7.272;2024-01-10T07:44:11;16.47;;;11.87;;
830;SDS011;397;50.564;7.272;2024-01-10T07:46:39;21.40;;;12.80;;
830;SDS011;397;50.564;7.272;2024-01-10T07:49:06;22.50;;;14.77;;
830;SDS011;397;50.564;7.272;2024-01-10T07:51:33;21.60;;;15.47;;
830;SDS011;397;50.564;7.272;2024-01-10T07:54:01;29.03;;;15.70;;
830;SDS011;397;50.564;7.272;2024-01-10T07:56:28;20.10;;;14.13;;
830;SDS011;397;50.564;7.272;2024-01-10T07:58:56;21.20;;;14.93;;
830;SDS011;397;50.564;7.272;2024-01-10T08:01:23;30.40;;;16.80;;
830;SDS011;397;50.564;7.272;2024-01-10T08:03:51;23.77;;;14.07;;
830;SDS011;397;50.564;7.272;2024-01-10T08:06:18;21.83;;;14.20;;
830;SDS011;397;50.564;7.272;2024-01-10T08:08:46;23.87;;;13.50;;
830;SDS011;397;50.564;7.272;2024-01-10T08:11:13;21.80;;;13.93;;
830;SDS011;397;50.564;7.272;2024-01-10T08:13:40;22.07;;;13.77;;
830;SDS011;397;50.564;7.272;2024-01-10T08:16:07;22.07;;;13.77;;
830;SDS011;397;50.564;7.272;2024-01-10T08:18:35;22.10;;;14.30;;
830;SDS011;397;50.564;7.272;2024-01-10T08:21:02;22.50;;;13.37;;
830;SDS011;397;50.564;7.272;2024-01-10T08:23:30;21.50;;;12.13;;
830;SDS011;397;50.564;7.272;2024-01-10T08:25:57;19.97;;;13.27;;
830;SDS011;397;50.564;7.272;2024-01-10T08:28:25;22.03;;;13.20;;
830;SDS011;397;50.564;7.272;2024-01-10T08:30:52;17.17;;;12.50;;
830;SDS011;397;50.564;7.272;2024-01-10T08:33:19;18.93;;;13.37;;
830;SDS011;397;50.564;7.272;2024-01-10T08:35:47;19.83;;;13.47;;
830;SDS011;397;50.564;7.272;2024-01-10T08:38:14;22.23;;;13.70;;
830;SDS011;397;50.564;7.272;2024-01-10T08:40:41;29.93;;;15.47;;
830;SDS011;397;50.564;7.272;2024-01-10T08:43:08;20.63;;;13.37;;
830;SDS011;397;50.564;7.272;2024-01-10T08:45:36;22.23;;;15.27;;
830;SDS011;397;50.564;7.272;2024-01-10T08:48:03;26.40;;;13.40;;
830;SDS011;397;50.564;7.272;2024-01-10T08:50:32;23.83;;;15.43;;
830;SDS011;397;50.564;7.272;2024-01-10T08:53:00;23.13;;;15.20;;
830;SDS011;397;50.564;7.272;2024-01-10T08:55:29;20.43;;;15.80;;
830;SDS011;397;50.564;7.272;2024-01-10T08:57:56;21.20;;;14.97;;
830;SDS011;397;50.564;7.272;2024-01-10T09:00:23;23.43;;;14.50;;
830;SDS011;397;50.564;7.272;2024-01-10T09:02:51;25.47;;;16.80;;
830;SDS011;397;50.564;7.272;2024-01-10T09:05:19;24.80;;;15.50;;
830;SDS011;397;50.564;7.272;2024-01-10T09:07:47;26.07;;;15.70;;
830;SDS011;397;50.564;7.272;2024-01-10T09:10:15;27.17;;;17.10;;
830;SDS011;397;50.564;7.272;2024-01-10T09:12:42;29.37;;;16.27;;
830;SDS011;397;50.564;7.272;2024-01-10T09:15:11;20.10;;;14.60;;
830;SDS011;397;50.564;7.272;2024-01-10T09:17:45;20.13;;;12.57;;
830;SDS011;397;50.564;7.272;2024-01-10T09:20:09;22.87;;;15.40;;
830;SDS011;397;50.564;7.272;2024-01-10T09:22:37;24.80;;;15.53;;
830;SDS011;397;50.564;7.272;2024-01-10T09:25:05;27.63;;;16.30;;
830;SDS011;397;50.564;7.272;2024-01-10T09:27:32;29.33;;;18.30;;
830;SDS011;397;50.564;7.272;2024-01-10T09:30:05;22.93;;;15.90;;
830;SDS011;397;50.564;7.272;2024-01-10T09:32:29;25.37;;;17.47;;
830;SDS011;397;50.564;7.272;2024-01-10T09:34:56;27.53;;;17.10;;
830;SDS011;397;50.564;7.272;2024-01-10T09:37:24;24.30;;;14.37;;
830;SDS011;397;50.564;7.272;2024-01-10T09:39:51;22.73;;;15.40;;
830;SDS011;397;50.564;7.272;2024-01-10T09:42:19;22.43;;;15.40;;
830;SDS011;397;50.564;7.272;2024-01-10T09:44:48;23.97;;;16.20;;
830;SDS011;397;50.564;7.272;2024-01-10T09:47:15;24.97;;;16.53;;
830;SDS011;397;50.564;7.272;2024-01-10T09:49:43;22.23;;;15.20;;
830;SDS011;397;50.564;7.272;2024-01-10T09:52:23;27.37;;;17.00;;
830;SDS011;397;50.564;7.272;2024-01-10T09:54:40;24.70;;;17.63;;
830;SDS011;397;50.564;7.272;2024-01-10T09:57:08;35.07;;;18.03;;
830;SDS011;397;50.564;7.272;2024-01-10T09:59:36;31.50;;;18.43;;
830;SDS011;397;50.564;7.272;2024-01-10T10:02:03;31.53;;;19.40;;
830;SDS011;397;50.564;7.272;2024-01-10T10:04:31;31.00;;;18.17;;
830;SDS011;397;50.564;7.272;2024-01-10T10:06:58;25.80;;;17.30;;
830;SDS011;397;50.564;7.272;2024-01-10T10:09:27;33.67;;;17.60;;
830;SDS011;397;50.564;7.272;2024-01-10T10:11:56;33.17;;;18.40;;
830;SDS011;397;50.564;7.272;2024-01-10T10:14:28;26.70;;;17.77;;
830;SDS011;397;50.564;7.272;2024-01-10T10:16:57;33.00;;;21.10;;
830;SDS011;397;50.564;7.272;2024-01-10T10:19:25;28.03;;;18.47;;
830;SDS011;397;50.564;7.272;2024-01-10T10:21:52;28.87;;;19.10;;
830;SDS011;397;50.564;7.272;2024-01-10T10:24:20;30.27;;;17.80;;
830;SDS011;397;50.564;7.272;2024-01-10T10:26:48;30.40;;;19.73;;
830;SDS011;397;50.564;7.272;2024-01-10T10:29:17;33.03;;;18.87;;
830;SDS011;397;50.564;7.272;2024-01-10T10:31:46;28.90;;;19.80;;
830;SDS011;397;50.564;7.272;2024-01-10T10:34:12;27.83;;;17.70;;
830;SDS011;397;50.564;7.272;2024-01-10T10:36:42;30.20;;;18.20;;
830;SDS011;397;50.564;7.272;2024-01-10T10:39:08;35.13;;;21.60;;
830;SDS011;397;50.564;7.272;2024-01-10T10:41:37;31.63;;;18.50;;
830;SDS011;397;50.564;7.272;2024-01-10T10:44:05;29.67;;;18.77;;
830;SDS011;397;50.564;7.272;2024-01-10T10:46:34;27.40;;;18.43;;
830;SDS011;397;50.564;7.272;2024-01-10T10:49:05;29.50;;;18.20;;
830;SDS011;397;50.564;7.272;2024-01-10T10:51:34;30.70;;;17.33;;
830;SDS011;397;50.564;7.272;2024-01-10T10:54:03;36.13;;;19.53;;
830;SDS011;397;50.564;7.272;2024-01-10T10:56:32;25.10;;;17.53;;
830;SDS011;397;50.564;7.272;2024-01-10T10:59:03;27.70;;;17.93;;
830;SDS011;397;50.564;7.272;2024-01-10T11:01:31;27.83;;;18.00;;
830;SDS011;397;50.564;7.272;2024-01-10T11:04:00;28.87;;;18.43;;
830;SDS011;397;50.564;7.272;2024-01-10T11:06:28;31.20;;;19.60;;
830;SDS011;397;50.564;7.272;2024-01-10T11:08:59;28.60;;;19.60;;
830;SDS011;397;50.564;7.272;2024-01-10T11:11:33;32.67;;;19.87;;
830;SDS011;397;50.564;7.272;2024-01-10T11:14:12;33.90;;;18.77;;
830;SDS011;397;50.564;7.272;2024-01-10T11:16:48;31.37;;;19.90;;
830;SDS011;397;50.564;7.272;2024-01-10T11:24:35;24.90;;;18.23;;
830;SDS011;397;50.564;7.272;2024-01-10T11:27:12;32.00;;;17.90;;
830;SDS011;397;50.564;7.272;2024-01-10T11:29:40;33.73;;;19.77;;
830;SDS011;397;50.564;7.272;2024-01-10T11:32:17;27.33;;;17.93;;
830;SDS011;397;50.564;7.272;2024-01-10T11:37:19;31.87;;;20.23;;
830;SDS011;397;50.564;7.272;2024-01-10T11:39:46;29.77;;;19.93;;
830;SDS011;397;50.564;7.272;2024-01-10T11:42:23;27.40;;;17.10;;
830;SDS011;397;50.564;7.272;2024-01-10T11:44:51;28.53;;;18.67;;
830;SDS011;397;50.564;7.272;2024-01-10T11:47:19;28.63;;;18.00;;
830;SDS011;397;50.564;7.272;2024-01-10T11:49:56;30.83;;;18.63;;
830;SDS011;397;50.564;7.272;2024-01-10T11:52:31;31.67;;;18.00;;
830;SDS011;397;50.564;7.272;2024-01-10T11:54:53;32.20;;;20.97;;
830;SDS011;397;50.564;7.272;2024-01-10T11:57:21;30.30;;;18.90;;
830;SDS011;397;50.564;7.272;2024-01-10T11:59:54;30.60;;;18.27;;
830;SDS011;397;50.564;7.272;2024-01-10T12:02:22;29.50;;;18.30;;
830;SDS011;397;50.564;7.272;2024-01-10T12:04:54;34.33;;;19.00;;
830;SDS011;397;50.564;7.272;2024-01-10T12:07:22;30.10;;;17.70;;
830;SDS011;397;50.564;7.272;2024-01-10T12:09:51;28.63;;;16.70;;
830;SDS011;397;50.564;7.272;2024-01-10T12:12:18;26.33;;;18.30;;
830;SDS011;397;50.564;7.272;2024-01-10T12:14:45;23.50;;;17.87;;
830;SDS011;397;50.564;7.272;2024-01-10T12:17:12;28.13;;;18.37;;
830;SDS011;397;50.564;7.272;2024-01-10T12:19:40;36.63;;;18.97;;
830;SDS011;397;50.564;7.272;2024-01-10T12:22:09;23.37;;;15.97;;
830;SDS011;397;50.564;7.272;2024-01-10T12:24:43;29.77;;;21.10;;
830;SDS011;397;50.564;7.272;2024-01-10T12:27:12;26.27;;;17.13;;
830;SDS011;397;50.564;7.272;2024-01-10T12:29:39;26.50;;;17.73;;
830;SDS011;397;50.564;7.272;2024-01-10T12:32:07;30.43;;;18.87;;
830;SDS011;397;50.564;7.272;2024-01-10T12:34:37;25.60;;;16.70;;
830;SDS011;397;50.564;7.272;2024-01-10T12:37:04;28.43;;;18.40;;
830;SDS011;397;50.564;7.272;2024-01-10T12:39:31;28.07;;;17.10;;
830;SDS011;397;50.564;7.272;2024-01-10T12:41:58;33.70;;;19.67;;
830;SDS011;397;50.564;7.272;2024-01-10T12:44:32;30.37;;;18.03;;
830;SDS011;397;50.564;7.272;2024-01-10T12:47:00;30.70;;;19.40;;
830;SDS011;397;50.564;7.272;2024-01-10T12:49:28;29.17;;;19.43;;
830;SDS011;397;50.564;7.272;2024-01-10T12:51:56;29.17;;;18.30;;
830;SDS011;397;50.564;7.272;2024-01-10T12:54:24;31.57;;;19.20;;
830;SDS011;397;50.564;7.272;2024-01-10T12:56:51;24.93;;;18.00;;
830;SDS011;397;50.564;7.272;2024-01-10T12:59:19;28.53;;;18.27;;
830;SDS011;397;50.564;7.272;2024-01-10T13:01:46;29.10;;;16.93;;
830;SDS011;397;50.564;7.272;2024-01-10T13:04:13;32.97;;;19.10;;
830;SDS011;397;50.564;7.272;2024-01-10T13:06:41;27.57;;;16.87;;
830;SDS011;397;50.564;7.272;2024-01-10T13:09:08;30.57;;;18.90;;
830;SDS011;397;50.564;7.272;2024-01-10T13:11:35;26.80;;;16.90;;
830;SDS011;397;50.564;7.272;2024-01-10T13:14:03;28.20;;;19.13;;
830;SDS011;397;50.564;7.272;2024-01-10T13:16:30;29.93;;;19.30;;
830;SDS011;397;50.564;7.272;2024-01-10T13:18:57;27.47;;;18.97;;
830;SDS011;397;50.564;7.272;2024-01-10T13:21:25;28.83;;;18.00;;
830;SDS011;397;50.564;7.272;2024-01-10T13:23:53;27.67;;;16.87;;
830;SDS011;397;50.564;7.272;2024-01-10T13:26:20;29.07;;;20.20;;
830;SDS011;397;50.564;7.272;2024-01-10T13:28:47;29.50;;;18.30;;
830;SDS011;397;50.564;7.272;2024-01-10T13:31:15;40.20;;;19.77;;
830;SDS011;397;50.564;7.272;2024-01-10T13:33:42;26.83;;;18.40;;
830;SDS011;397;50.564;7.272;2024-01-10T13:36:09;24.63;;;15.90;;
830;SDS011;397;50.564;7.272;2024-01-10T13:38:37;20.97;;;14.73;;
830;SDS011;397;50.564;7.272;2024-01-10T13:41:04;27.97;;;16.50;;
830;SDS011;397;50.564;7.272;2024-01-10T13:43:31;22.90;;;15.40;;
830;SDS011;397;50.564;7.272;2024-01-10T13:45:59;24.43;;;15.30;;
830;SDS011;397;50.564;7.272;2024-01-10T13:48:27;27.47;;;16.30;;
830;SDS011;397;50.564;7.272;2024-01-10T13:50:54;22.07;;;14.37;;
830;SDS011;397;50.564;7.272;2024-01-10T13:53:22;31.20;;;15.67;;
830;SDS011;397;50.564;7.272;2024-01-10T13:55:49;24.77;;;15.30;;
830;SDS011;397;50.564;7.272;2024-01-10T13:58:16;24.80;;;14.40;;
830;SDS011;397;50.564;7.272;2024-01-10T14:00:45;31.50;;;15.70;;
830;SDS011;397;50.564;7.272;2024-01-10T14:03:13;23.30;;;14.90;;
830;SDS011;397;50.564;7.272;2024-01-10T14:05:40;21.93;;;14.73;;
830;SDS011;397;50.564;7.272;2024-01-10T14:08:07;21.93;;;16.70;;
830;SDS011;397;50.564;7.272;2024-01-10T14:10:36;27.73;;;15.57;;
830;SDS011;397;50.564;7.272;2024-01-10T14:13:05;24.27;;;15.73;;
830;SDS011;397;50.564;7.272;2024-01-10T14:15:33;22.70;;;16.63;;
830;SDS011;397;50.564;7.272;2024-01-10T14:18:00;24.63;;;16.03;;
830;SDS011;397;50.564;7.272;2024-01-10T14:20:27;25.47;;;15.00;;
830;SDS011;397;50.564;7.272;2024-01-10T14:22:54;29.27;;;14.47;;
830;SDS011;397;50.564;7.272;2024-01-10T14:25:22;31.77;;;16.67;;
830;SDS011;397;50.564;7.272;2024-01-10T14:27:49;24.43;;;16.07;;
830;SDS011;397;50.564;7.272;2024-01-10T14:30:17;22.67;;;14.40;;
830;SDS011;397;50.564;7.272;2024-01-10T14:32:45;27.47;;;15.40;;
830;SDS011;397;50.564;7.272;2024-01-10T14:35:13;26.43;;;15.27;;
830;SDS011;397;50.564;7.272;2024-01-10T14:37:41;22.60;;;15.63;;
830;SDS011;397;50.564;7.272;2024-01-10T14:40:08;22.37;;;16.87;;
830;SDS011;397;50.564;7.272;2024-01-10T14:42:36;23.73;;;14.90;;
830;SDS011;397;50.564;7.272;2024-01-10T14:45:04;25.63;;;16.30;;
830;SDS011;397;50.564;7.272;2024-01-10T14:47:31;25.97;;;16.97;;
830;SDS011;397;50.564;7.272;2024-01-10T14:49:58;28.17;;;18.30;;
830;SDS011;397;50.564;7.272;2024-01-10T14:52:26;30.30;;;17.93;;
830;SDS011;397;50.564;7.272;2024-01-10T14:54:53;23.43;;;14.37;;
830;SDS011;397;50.564;7.272;2024-01-10T14:57:20;23.20;;;15.10;;
830;SDS011;397;50.564;7.272;2024-01-10T14:59:48;28.07;;;16.53;;
830;SDS011;397;50.564;7.272;2024-01-10T15:02:15;29.37;;;16.93;;
830;SDS011;397;50.564;7.272;2024-01-10T15:04:44;24.90;;;14.27;;
830;SDS011;397;50.564;7.272;2024-01-10T15:07:12;25.50;;;16.10;;
830;SDS011;397;50.564;7.272;2024-01-10T15:09:39;24.20;;;15.67;;
830;SDS011;397;50.564;7.272;2024-01-10T15:12:08;25.87;;;15.20;;
830;SDS011;397;50.564;7.272;2024-01-10T15:14:36;22.57;;;14.60;;
830;SDS011;397;50.564;7.272;2024-01-10T15:17:05;21.93;;;15.13;;
830;SDS011;397;50.564;7.272;2024-01-10T15:19:34;23.37;;;14.73;;
830;SDS011;397;50.564;7.272;2024-01-10T15:22:01;19.50;;;14.00;;
830;SDS011;397;50.564;7.272;2024-01-10T15:24:29;19.63;;;14.30;;
830;SDS011;397;50.564;7.272;2024-01-10T15:26:57;24.63;;;14.63;;
830;SDS011;397;50.564;7.272;2024-01-10T15:29:26;22.47;;;14.03;;